sensor_id;sensor_type;location;lat;lon;timestamp;pressure;altitude;pressure_sealevel;temperature
59339;BMP280;45117;50.960;5.500;2023-07-02T00:01:11;99948.63;;;16.11
59339;BMP280;45117;50.960;5.500;2023-07-02T00:03:38;99943.22;;;16.11
59339;BMP280;45117;50.960;5.500;2023-07-02T00:06:05;99941.25;;;16.11
59339;BMP280;45117;50.960;5.500;2023-07-02T00:08:31;99932.97;;;16.15
59339;BMP280;45117;50.960;5.500;2023-07-02T00:10:59;99932.22;;;16.05
59339;BMP280;45117;50.960;5.500;2023-07-02T00:13:27;99931.63;;;16.10
59339;BMP280;45117;50.960;5.500;2023-07-02T00:15:54;99935.66;;;16.06
59339;BMP280;45117;50.960;5.500;2023-07-02T00:18:20;99914.81;;;15.88
59339;BMP280;45117;50.960;5.500;2023-07-02T00:20:47;99931.34;;;15.99
59339;BMP280;45117;50.960;5.500;2023-07-02T00:23:16;99934.34;;;16.01
59339;BMP280;45117;50.960;5.500;2023-07-02T00:25:42;99935.41;;;16.04
59339;BMP280;45117;50.960;5.500;2023-07-02T00:28:09;99916.03;;;15.87
59339;BMP280;45117;50.960;5.500;2023-07-02T00:30:37;99913.16;;;15.81
59339;BMP280;45117;50.960;5.500;2023-07-02T00:33:04;99932.84;;;15.91
59339;BMP280;45117;50.960;5.500;2023-07-02T00:35:30;99900.72;;;15.66
59339;BMP280;45117;50.960;5.500;2023-07-02T00:37:57;99932.84;;;15.91
59339;BMP280;45117;50.960;5.500;2023-07-02T00:40:23;99916.94;;;15.75
59339;BMP280;45117;50.960;5.500;2023-07-02T00:42:50;99924.00;;;15.72
59339;BMP280;45117;50.960;5.500;2023-07-02T00:45:17;99937.34;;;15.85
59339;BMP280;45117;50.960;5.500;2023-07-02T00:47:45;99930.47;;;15.75
59339;BMP280;45117;50.960;5.500;2023-07-02T00:50:11;99939.78;;;15.74
59339;BMP280;45117;50.960;5.500;2023-07-02T00:52:38;99911.53;;;15.56
59339;BMP280;45117;50.960;5.500;2023-07-02T00:55:05;99910.63;;;15.50
59339;BMP280;45117;50.960;5.500;2023-07-02T00:57:32;99939.81;;;15.65
59339;BMP280;45117;50.960;5.500;2023-07-02T00:59:59;99926.13;;;15.59
59339;BMP280;45117;50.960;5.500;2023-07-02T01:02:26;99940.69;;;15.61
59339;BMP280;45117;50.960;5.500;2023-07-02T01:04:56;99906.13;;;15.38
59339;BMP280;45117;50.960;5.500;2023-07-02T01:07:25;99933.81;;;15.60
59339;BMP280;45117;50.960;5.500;2023-07-02T01:09:51;99923.13;;;15.57
59339;BMP280;45117;50.960;5.500;2023-07-02T01:12:19;99925.22;;;15.53
59339;BMP280;45117;50.960;5.500;2023-07-02T01:14:48;99936.94;;;15.59
59339;BMP280;45117;50.960;5.500;2023-07-02T01:17:18;99934.97;;;15.59
59339;BMP280;45117;50.960;5.500;2023-07-02T01:19:49;99932.59;;;15.52
59339;BMP280;45117;50.960;5.500;2023-07-02T01:22:18;99943.09;;;15.59
59339;BMP280;45117;50.960;5.500;2023-07-02T01:24:51;99940.84;;;15.58
59339;BMP280;45117;50.960;5.500;2023-07-02T01:27:18;99926.56;;;15.57
59339;BMP280;45117;50.960;5.500;2023-07-02T01:29:45;99938.59;;;15.56
59339;BMP280;45117;50.960;5.500;2023-07-02T01:32:13;99935.88;;;15.56
59339;BMP280;45117;50.960;5.500;2023-07-02T01:34:39;99930.63;;;15.53
59339;BMP280;45117;50.960;5.500;2023-07-02T01:37:10;99946.09;;;15.61
59339;BMP280;45117;50.960;5.500;2023-07-02T01:39:37;99921.44;;;15.50
59339;BMP280;45117;50.960;5.500;2023-07-02T01:42:08;99916.94;;;15.38
59339;BMP280;45117;50.960;5.500;2023-07-02T01:44:35;99953.34;;;15.65
59339;BMP280;45117;50.960;5.500;2023-07-02T01:47:03;99941.88;;;15.51
59339;BMP280;45117;50.960;5.500;2023-07-02T01:49:30;99950.47;;;15.59
59339;BMP280;45117;50.960;5.500;2023-07-02T01:51:57;99957.84;;;15.58
59339;BMP280;45117;50.960;5.500;2023-07-02T01:54:26;99953.63;;;15.57
59339;BMP280;45117;50.960;5.500;2023-07-02T01:56:53;99946.41;;;15.54
59339;BMP280;45117;50.960;5.500;2023-07-02T01:59:19;99940.38;;;15.50
59339;BMP280;45117;50.960;5.500;2023-07-02T02:01:46;99951.19;;;15.50
59339;BMP280;45117;50.960;5.500;2023-07-02T02:04:13;99945.53;;;15.48
59339;BMP280;45117;50.960;5.500;2023-07-02T02:06:41;99946.53;;;15.51
59339;BMP280;45117;50.960;5.500;2023-07-02T02:09:08;99957.09;;;15.58
59339;BMP280;45117;50.960;5.500;2023-07-02T02:11:38;99961.75;;;15.57
59339;BMP280;45117;50.960;5.500;2023-07-02T02:14:05;99947.47;;;15.57
59339;BMP280;45117;50.960;5.500;2023-07-02T02:16:32;99950.75;;;15.52
59339;BMP280;45117;50.960;5.500;2023-07-02T02:19:00;99924.59;;;15.30
59339;BMP280;45117;50.960;5.500;2023-07-02T02:21:27;99966.88;;;15.65
59339;BMP280;45117;50.960;5.500;2023-07-02T02:23:53;99952.69;;;15.51
59339;BMP280;45117;50.960;5.500;2023-07-02T02:26:21;99954.81;;;15.56
59339;BMP280;45117;50.960;5.500;2023-07-02T02:28:49;99971.34;;;15.68
59339;BMP280;45117;50.960;5.500;2023-07-02T02:31:16;99950.31;;;15.53
59339;BMP280;45117;50.960;5.500;2023-07-02T02:33:43;99967.44;;;15.59
59339;BMP280;45117;50.960;5.500;2023-07-02T02:36:10;99966.28;;;15.60
59339;BMP280;45117;50.960;5.500;2023-07-02T02:38:37;99952.69;;;15.51
59339;BMP280;45117;50.960;5.500;2023-07-02T02:41:04;99974.38;;;15.60
59339;BMP280;45117;50.960;5.500;2023-07-02T02:43:31;99947.91;;;15.46
59339;BMP280;45117;50.960;5.500;2023-07-02T02:45:59;99963.53;;;15.51
59339;BMP280;45117;50.960;5.500;2023-07-02T02:48:29;99968.19;;;15.60
59339;BMP280;45117;50.960;5.500;2023-07-02T02:50:55;99980.06;;;15.62
59339;BMP280;45117;50.960;5.500;2023-07-02T02:53:22;99930.59;;;15.34
59339;BMP280;45117;50.960;5.500;2023-07-02T02:55:49;99966.41;;;15.57
59339;BMP280;45117;50.960;5.500;2023-07-02T02:58:15;99962.03;;;15.50
59339;BMP280;45117;50.960;5.500;2023-07-02T03:00:42;99962.03;;;15.50
59339;BMP280;45117;50.960;5.500;2023-07-02T03:03:12;99984.28;;;15.54
59339;BMP280;45117;50.960;5.500;2023-07-02T03:05:40;99982.47;;;15.51
59339;BMP280;45117;50.960;5.500;2023-07-02T03:08:06;99971.03;;;15.38
59339;BMP280;45117;50.960;5.500;2023-07-02T03:10:33;99984.56;;;15.47
59339;BMP280;45117;50.960;5.500;2023-07-02T03:13:00;99955.22;;;15.18
59339;BMP280;45117;50.960;5.500;2023-07-02T03:15:29;99992.53;;;15.42
59339;BMP280;45117;50.960;5.500;2023-07-02T03:17:56;99995.38;;;15.38
59339;BMP280;45117;50.960;5.500;2023-07-02T03:20:24;99953.09;;;15.04
59339;BMP280;45117;50.960;5.500;2023-07-02T03:22:52;99981.56;;;15.27
59339;BMP280;45117;50.960;5.500;2023-07-02T03:25:18;99989.19;;;15.28
59339;BMP280;45117;50.960;5.500;2023-07-02T03:27:45;100000.75;;;15.29
59339;BMP280;45117;50.960;5.500;2023-07-02T03:30:12;99959.97;;;15.05
59339;BMP280;45117;50.960;5.500;2023-07-02T03:32:39;99981.50;;;15.09
59339;BMP280;45117;50.960;5.500;2023-07-02T03:35:06;100013.38;;;15.23
59339;BMP280;45117;50.960;5.500;2023-07-02T03:37:34;99997.13;;;15.14
59339;BMP280;45117;50.960;5.500;2023-07-02T03:40:01;100011.13;;;15.21
59339;BMP280;45117;50.960;5.500;2023-07-02T03:42:27;100008.25;;;15.16
59339;BMP280;45117;50.960;5.500;2023-07-02T03:44:54;100011.09;;;15.12
59339;BMP280;45117;50.960;5.500;2023-07-02T03:47:21;100006.44;;;15.13
59339;BMP280;45117;50.960;5.500;2023-07-02T03:49:47;99996.06;;;15.11
59339;BMP280;45117;50.960;5.500;2023-07-02T03:52:14;100011.69;;;15.16
59339;BMP280;45117;50.960;5.500;2023-07-02T03:54:42;99999.66;;;15.08
59339;BMP280;45117;50.960;5.500;2023-07-02T03:57:09;100024.34;;;15.19
59339;BMP280;45117;50.960;5.500;2023-07-02T03:59:35;100014.13;;;15.14
59339;BMP280;45117;50.960;5.500;2023-07-02T04:02:02;100030.22;;;15.27
59339;BMP280;45117;50.960;5.500;2023-07-02T04:04:29;100032.63;;;15.34
59339;BMP280;45117;50.960;5.500;2023-07-02T04:06:55;100033.22;;;15.29
59339;BMP280;45117;50.960;5.500;2023-07-02T04:09:22;100045.97;;;15.28
59339;BMP280;45117;50.960;5.500;2023-07-02T04:11:50;100034.72;;;15.30
59339;BMP280;45117;50.960;5.500;2023-07-02T04:14:17;100047.66;;;15.35
59339;BMP280;45117;50.960;5.500;2023-07-02T04:16:45;100037.16;;;15.37
59339;BMP280;45117;50.960;5.500;2023-07-02T04:19:12;100030.09;;;15.40
59339;BMP280;45117;50.960;5.500;2023-07-02T04:21:38;100040.63;;;15.47
59339;BMP280;45117;50.960;5.500;2023-07-02T04:24:05;100042.31;;;15.53
59339;BMP280;45117;50.960;5.500;2023-07-02T04:26:32;100042.16;;;15.57
59339;BMP280;45117;50.960;5.500;2023-07-02T04:29:00;100048.19;;;15.61
59339;BMP280;45117;50.960;5.500;2023-07-02T04:31:27;100051.31;;;15.69
59339;BMP280;45117;50.960;5.500;2023-07-02T04:33:54;100049.56;;;15.66
59339;BMP280;45117;50.960;5.500;2023-07-02T04:36:20;100051.31;;;15.69
59339;BMP280;45117;50.960;5.500;2023-07-02T04:38:47;100040.50;;;15.59
59339;BMP280;45117;50.960;5.500;2023-07-02T04:41:14;100062.34;;;15.83
59339;BMP280;45117;50.960;5.500;2023-07-02T04:43:40;100048.22;;;15.98
59339;BMP280;45117;50.960;5.500;2023-07-02T04:46:08;100011.53;;;15.87
59339;BMP280;45117;50.960;5.500;2023-07-02T04:48:37;100067.75;;;16.38
59339;BMP280;45117;50.960;5.500;2023-07-02T04:51:04;100057.31;;;16.64
59339;BMP280;45117;50.960;5.500;2023-07-02T04:53:30;100064.59;;;16.31
59339;BMP280;45117;50.960;5.500;2023-07-02T04:55:57;100069.28;;;16.21
59339;BMP280;45117;50.960;5.500;2023-07-02T04:58:23;100066.41;;;16.34
59339;BMP280;45117;50.960;5.500;2023-07-02T05:00:50;100034.34;;;16.32
59339;BMP280;45117;50.960;5.500;2023-07-02T05:03:18;100079.94;;;16.61
59339;BMP280;45117;50.960;5.500;2023-07-02T05:05:45;100083.09;;;16.50
59339;BMP280;45117;50.960;5.500;2023-07-02T05:08:14;100083.81;;;16.60
59339;BMP280;45117;50.960;5.500;2023-07-02T05:10:41;100064.41;;;16.52
59339;BMP280;45117;50.960;5.500;2023-07-02T05:13:07;100080.91;;;16.82
59339;BMP280;45117;50.960;5.500;2023-07-02T05:15:34;100077.78;;;16.65
59339;BMP280;45117;50.960;5.500;2023-07-02T05:18:01;100082.84;;;16.91
59339;BMP280;45117;50.960;5.500;2023-07-02T05:20:29;100066.19;;;17.07
59339;BMP280;45117;50.960;5.500;2023-07-02T05:22:58;100064.06;;;17.20
59339;BMP280;45117;50.960;5.500;2023-07-02T05:25:25;100079.69;;;17.25
59339;BMP280;45117;50.960;5.500;2023-07-02T05:27:51;100076.25;;;17.25
59339;BMP280;45117;50.960;5.500;2023-07-02T05:30:18;100083.63;;;17.24
59339;BMP280;45117;50.960;5.500;2023-07-02T05:32:45;100078.91;;;17.58
59339;BMP280;45117;50.960;5.500;2023-07-02T05:35:11;100096.38;;;17.57
59339;BMP280;45117;50.960;5.500;2023-07-02T05:37:39;100093.22;;;17.82
59339;BMP280;45117;50.960;5.500;2023-07-02T05:40:07;100085.69;;;17.77
59339;BMP280;45117;50.960;5.500;2023-07-02T05:42:34;100098.88;;;17.93
59339;BMP280;45117;50.960;5.500;2023-07-02T05:45:01;100053.94;;;18.07
59339;BMP280;45117;50.960;5.500;2023-07-02T05:47:28;100098.97;;;17.99
59339;BMP280;45117;50.960;5.500;2023-07-02T05:49:54;100112.16;;;17.91
59339;BMP280;45117;50.960;5.500;2023-07-02T05:52:21;100088.13;;;17.75
59339;BMP280;45117;50.960;5.500;2023-07-02T05:54:49;100119.88;;;18.07
59339;BMP280;45117;50.960;5.500;2023-07-02T05:57:16;100088.00;;;17.93
59339;BMP280;45117;50.960;5.500;2023-07-02T05:59:43;100110.38;;;18.27
59339;BMP280;45117;50.960;5.500;2023-07-02T06:02:10;100109.06;;;17.84
59339;BMP280;45117;50.960;5.500;2023-07-02T06:04:36;100116.22;;;17.96
59339;BMP280;45117;50.960;5.500;2023-07-02T06:07:03;100123.91;;;18.12
59339;BMP280;45117;50.960;5.500;2023-07-02T06:09:30;100114.56;;;19.36
59339;BMP280;45117;50.960;5.500;2023-07-02T06:11:58;100105.66;;;19.01
59339;BMP280;45117;50.960;5.500;2023-07-02T06:14:24;100112.97;;;19.10
59339;BMP280;45117;50.960;5.500;2023-07-02T06:16:52;100133.34;;;18.85
59339;BMP280;45117;50.960;5.500;2023-07-02T06:19:22;100138.41;;;18.77
59339;BMP280;45117;50.960;5.500;2023-07-02T06:21:49;100111.22;;;18.48
59339;BMP280;45117;50.960;5.500;2023-07-02T06:24:15;100113.94;;;18.77
59339;BMP280;45117;50.960;5.500;2023-07-02T06:26:42;100149.03;;;18.60
59339;BMP280;45117;50.960;5.500;2023-07-02T06:29:10;100097.75;;;18.00
59339;BMP280;45117;50.960;5.500;2023-07-02T06:31:37;100133.44;;;18.31
59339;BMP280;45117;50.960;5.500;2023-07-02T06:34:03;100136.63;;;18.45
59339;BMP280;45117;50.960;5.500;2023-07-02T06:36:30;100134.84;;;18.41
59339;BMP280;45117;50.960;5.500;2023-07-02T06:38:57;100155.56;;;18.39
59339;BMP280;45117;50.960;5.500;2023-07-02T06:41:23;100162.25;;;18.82
59339;BMP280;45117;50.960;5.500;2023-07-02T06:43:50;100142.25;;;18.41
59339;BMP280;45117;50.960;5.500;2023-07-02T06:46:19;100155.22;;;18.46
59339;BMP280;45117;50.960;5.500;2023-07-02T06:48:46;100172.47;;;18.72
59339;BMP280;45117;50.960;5.500;2023-07-02T06:51:12;100160.38;;;18.88
59339;BMP280;45117;50.960;5.500;2023-07-02T06:53:40;100179.31;;;18.97
59339;BMP280;45117;50.960;5.500;2023-07-02T06:56:07;100160.00;;;18.81
59339;BMP280;45117;50.960;5.500;2023-07-02T06:58:34;100177.91;;;18.72
59339;BMP280;45117;50.960;5.500;2023-07-02T07:01:01;100175.28;;;18.93
59339;BMP280;45117;50.960;5.500;2023-07-02T07:03:29;100146.78;;;19.38
59339;BMP280;45117;50.960;5.500;2023-07-02T07:05:55;100171.13;;;19.82
59339;BMP280;45117;50.960;5.500;2023-07-02T07:08:22;100186.28;;;19.33
59339;BMP280;45117;50.960;5.500;2023-07-02T07:10:50;100170.97;;;19.36
59339;BMP280;45117;50.960;5.500;2023-07-02T07:13:16;100175.44;;;19.19
59339;BMP280;45117;50.960;5.500;2023-07-02T07:15:43;100150.63;;;19.31
59339;BMP280;45117;50.960;5.500;2023-07-02T07:18:10;100193.44;;;19.16
59339;BMP280;45117;50.960;5.500;2023-07-02T07:20:38;100195.53;;;19.21
59339;BMP280;45117;50.960;5.500;2023-07-02T07:23:05;100200.75;;;19.25
59339;BMP280;45117;50.960;5.500;2023-07-02T07:25:32;100200.06;;;19.45
59339;BMP280;45117;50.960;5.500;2023-07-02T07:27:59;100196.03;;;20.16
59339;BMP280;45117;50.960;5.500;2023-07-02T07:30:26;100204.94;;;20.62
59339;BMP280;45117;50.960;5.500;2023-07-02T07:32:53;100202.19;;;20.88
59339;BMP280;45117;50.960;5.500;2023-07-02T07:35:21;100202.03;;;21.03
59339;BMP280;45117;50.960;5.500;2023-07-02T07:37:49;100197.56;;;21.00
59339;BMP280;45117;50.960;5.500;2023-07-02T07:40:16;100197.75;;;21.28
59339;BMP280;45117;50.960;5.500;2023-07-02T07:42:43;100195.94;;;20.56
59339;BMP280;45117;50.960;5.500;2023-07-02T07:45:10;100197.41;;;20.83
59339;BMP280;45117;50.960;5.500;2023-07-02T07:47:37;100189.75;;;20.87
59339;BMP280;45117;50.960;5.500;2023-07-02T07:50:05;100197.06;;;20.70
59339;BMP280;45117;50.960;5.500;2023-07-02T07:52:36;100202.44;;;20.90
59339;BMP280;45117;50.960;5.500;2023-07-02T07:55:05;100218.81;;;21.22
59339;BMP280;45117;50.960;5.500;2023-07-02T07:57:33;100209.31;;;21.12
59339;BMP280;45117;50.960;5.500;2023-07-02T08:00:00;100206.66;;;21.66
59339;BMP280;45117;50.960;5.500;2023-07-02T08:02:29;100216.22;;;21.44
59339;BMP280;45117;50.960;5.500;2023-07-02T08:04:59;100211.53;;;22.26
59339;BMP280;45117;50.960;5.500;2023-07-02T08:07:27;100211.78;;;21.52
59339;BMP280;45117;50.960;5.500;2023-07-02T08:09:54;100197.59;;;20.74
59339;BMP280;45117;50.960;5.500;2023-07-02T08:12:24;100213.97;;;20.74
59339;BMP280;45117;50.960;5.500;2023-07-02T08:14:52;100204.88;;;20.11
59339;BMP280;45117;50.960;5.500;2023-07-02T08:17:18;100219.72;;;20.30
59339;BMP280;45117;50.960;5.500;2023-07-02T08:19:45;100209.13;;;20.12
59339;BMP280;45117;50.960;5.500;2023-07-02T08:22:12;100207.00;;;20.01
59339;BMP280;45117;50.960;5.500;2023-07-02T08:24:39;100201.88;;;19.88
59339;BMP280;45117;50.960;5.500;2023-07-02T08:27:06;100221.53;;;19.57
59339;BMP280;45117;50.960;5.500;2023-07-02T08:29:46;100186.28;;;19.33
59339;BMP280;45117;50.960;5.500;2023-07-02T08:32:13;100234.59;;;19.53
59339;BMP280;45117;50.960;5.500;2023-07-02T08:34:40;100215.66;;;19.44
59339;BMP280;45117;50.960;5.500;2023-07-02T08:37:07;100229.56;;;19.81
59339;BMP280;45117;50.960;5.500;2023-07-02T08:39:36;100221.66;;;19.48
59339;BMP280;45117;50.960;5.500;2023-07-02T08:42:07;100228.56;;;20.05
59339;BMP280;45117;50.960;5.500;2023-07-02T08:44:35;100196.09;;;20.47
59339;BMP280;45117;50.960;5.500;2023-07-02T08:47:08;100210.75;;;20.50
59339;BMP280;45117;50.960;5.500;2023-07-02T08:49:35;100233.09;;;20.28
59339;BMP280;45117;50.960;5.500;2023-07-02T08:52:02;100185.84;;;20.37
59339;BMP280;45117;50.960;5.500;2023-07-02T08:54:29;100226.38;;;20.75
59339;BMP280;45117;50.960;5.500;2023-07-02T08:56:55;100239.59;;;21.14
59339;BMP280;45117;50.960;5.500;2023-07-02T08:59:25;100219.66;;;21.02
59339;BMP280;45117;50.960;5.500;2023-07-02T09:01:56;100191.00;;;21.72
59339;BMP280;45117;50.960;5.500;2023-07-02T09:04:35;100239.25;;;22.68
59339;BMP280;45117;50.960;5.500;2023-07-02T09:07:03;100234.69;;;23.43
59339;BMP280;45117;50.960;5.500;2023-07-02T09:09:31;100205.03;;;23.93
59339;BMP280;45117;50.960;5.500;2023-07-02T09:11:57;100211.63;;;22.49
59339;BMP280;45117;50.960;5.500;2023-07-02T09:14:25;100233.97;;;22.36
59339;BMP280;45117;50.960;5.500;2023-07-02T09:17:05;100241.75;;;21.78
59339;BMP280;45117;50.960;5.500;2023-07-02T09:19:48;100225.91;;;21.45
59339;BMP280;45117;50.960;5.500;2023-07-02T09:22:27;100211.59;;;21.67
59339;BMP280;45117;50.960;5.500;2023-07-02T09:25:04;100241.38;;;21.59
59339;BMP280;45117;50.960;5.500;2023-07-02T09:27:34;100262.19;;;21.51
59339;BMP280;45117;50.960;5.500;2023-07-02T09:30:06;100239.94;;;22.46
59339;BMP280;45117;50.960;5.500;2023-07-02T09:32:33;100251.88;;;23.43
59339;BMP280;45117;50.960;5.500;2023-07-02T09:35:12;100261.50;;;24.24
59339;BMP280;45117;50.960;5.500;2023-07-02T09:37:42;100249.31;;;24.14
59339;BMP280;45117;50.960;5.500;2023-07-02T09:40:09;100220.88;;;23.65
59339;BMP280;45117;50.960;5.500;2023-07-02T09:42:38;100236.69;;;23.25
59339;BMP280;45117;50.960;5.500;2023-07-02T09:45:08;100244.47;;;22.99
59339;BMP280;45117;50.960;5.500;2023-07-02T09:47:39;100240.50;;;22.78
59339;BMP280;45117;50.960;5.500;2023-07-02T09:50:12;100238.69;;;24.71
59339;BMP280;45117;50.960;5.500;2023-07-02T09:52:41;100233.75;;;25.61
59339;BMP280;45117;50.960;5.500;2023-07-02T09:55:08;100240.97;;;24.66
59339;BMP280;45117;50.960;5.500;2023-07-02T09:57:35;100239.81;;;24.21
59339;BMP280;45117;50.960;5.500;2023-07-02T10:00:03;100247.94;;;23.96
59339;BMP280;45117;50.960;5.500;2023-07-02T10:02:30;100244.16;;;24.41
59339;BMP280;45117;50.960;5.500;2023-07-02T10:04:57;100236.59;;;24.82
59339;BMP280;45117;50.960;5.500;2023-07-02T10:07:29;100242.13;;;24.47
59339;BMP280;45117;50.960;5.500;2023-07-02T10:10:07;100237.34;;;24.17
59339;BMP280;45117;50.960;5.500;2023-07-02T10:12:46;100243.28;;;25.11
59339;BMP280;45117;50.960;5.500;2023-07-02T10:15:24;100186.34;;;24.87
59339;BMP280;45117;50.960;5.500;2023-07-02T10:17:57;100246.03;;;25.11
59339;BMP280;45117;50.960;5.500;2023-07-02T10:20:32;100249.53;;;24.57
59339;BMP280;45117;50.960;5.500;2023-07-02T10:23:01;100253.47;;;23.91
59339;BMP280;45117;50.960;5.500;2023-07-02T10:25:29;100260.81;;;25.08
59339;BMP280;45117;50.960;5.500;2023-07-02T10:27:58;100253.44;;;24.97
59339;BMP280;45117;50.960;5.500;2023-07-02T10:30:33;100250.75;;;24.62
59339;BMP280;45117;50.960;5.500;2023-07-02T10:33:14;100241.25;;;24.27
59339;BMP280;45117;50.960;5.500;2023-07-02T10:35:44;100236.91;;;23.50
59339;BMP280;45117;50.960;5.500;2023-07-02T10:38:18;100255.97;;;23.83
59339;BMP280;45117;50.960;5.500;2023-07-02T10:40:54;100247.31;;;23.68
59339;BMP280;45117;50.960;5.500;2023-07-02T10:43:24;100248.09;;;23.52
59339;BMP280;45117;50.960;5.500;2023-07-02T10:45:51;100248.19;;;23.07
59339;BMP280;45117;50.960;5.500;2023-07-02T10:48:17;100247.94;;;23.16
59339;BMP280;45117;50.960;5.500;2023-07-02T10:50:44;100263.34;;;23.19
59339;BMP280;45117;50.960;5.500;2023-07-02T10:53:14;100250.41;;;23.31
59339;BMP280;45117;50.960;5.500;2023-07-02T11:02:17;100253.78;;;24.17
59339;BMP280;45117;50.960;5.500;2023-07-02T11:04:53;100260.84;;;24.78
59339;BMP280;45117;50.960;5.500;2023-07-02T11:07:22;100255.31;;;24.84
59339;BMP280;45117;50.960;5.500;2023-07-02T11:09:50;100250.53;;;24.19
59339;BMP280;45117;50.960;5.500;2023-07-02T11:12:17;100245.81;;;23.67
59339;BMP280;45117;50.960;5.500;2023-07-02T11:14:47;100258.06;;;24.48
59339;BMP280;45117;50.960;5.500;2023-07-02T11:17:13;100255.97;;;25.20
59339;BMP280;45117;50.960;5.500;2023-07-02T11:19:50;100271.13;;;25.51
59339;BMP280;45117;50.960;5.500;2023-07-02T11:22:17;100257.94;;;24.95
59339;BMP280;45117;50.960;5.500;2023-07-02T11:24:43;100256.72;;;25.82
59339;BMP280;45117;50.960;5.500;2023-07-02T11:27:20;100264.63;;;26.42
59339;BMP280;45117;50.960;5.500;2023-07-02T11:29:47;100238.06;;;25.13
59339;BMP280;45117;50.960;5.500;2023-07-02T11:32:14;100255.78;;;24.58
